sensor_id;sensor_type;location;lat;lon;timestamp;P1;durP1;ratioP1;P2;durP2;ratioP2
51612;SDS011;37694;51.748;14.326;2022-11-22T00:00:12;9.80;;;6.30;;
51612;SDS011;37694;51.748;14.326;2022-11-22T00:02:39;10.90;;;6.85;;
51612;SDS011;37694;51.748;14.326;2022-11-22T00:05:05;10.40;;;6.45;;
51612;SDS011;37694;51.748;14.326;2022-11-22T00:07:31;12.95;;;6.85;;
51612;SDS011;37694;51.748;14.326;2022-11-22T00:09:56;14.15;;;7.00;;
51612;SDS011;37694;51.748;14.326;2022-11-22T00:12:22;16.38;;;7.00;;
51612;SDS011;37694;51.748;14.326;2022-11-22T00:14:48;13.65;;;6.82;;
51612;SDS011;37694;51.748;14.326;2022-11-22T00:17:13;10.65;;;7.05;;
51612;SDS011;37694;51.748;14.326;2022-11-22T00:19:39;11.85;;;6.80;;
51612;SDS011;37694;51.748;14.326;2022-11-22T00:22:05;11.40;;;6.88;;
51612;SDS011;37694;51.748;14.326;2022-11-22T00:24:31;13.13;;;7.22;;
51612;SDS011;37694;51.748;14.326;2022-11-22T00:26:57;10.68;;;6.50;;
51612;SDS011;37694;51.748;14.326;2022-11-22T00:29:23;12.27;;;6.55;;
51612;SDS011;37694;51.748;14.326;2022-11-22T00:31:48;9.80;;;6.43;;
51612;SDS011;37694;51.748;14.326;2022-11-22T00:34:14;13.63;;;6.43;;
51612;SDS011;37694;51.748;14.326;2022-11-22T00:36:40;13.25;;;6.70;;
51612;SDS011;37694;51.748;14.326;2022-11-22T00:39:05;10.07;;;6.07;;
51612;SDS011;37694;51.748;14.326;2022-11-22T00:41:31;11.23;;;6.60;;
51612;SDS011;37694;51.748;14.326;2022-11-22T00:43:57;9.55;;;7.03;;
51612;SDS011;37694;51.748;14.326;2022-11-22T00:46:22;9.48;;;6.78;;
51612;SDS011;37694;51.748;14.326;2022-11-22T00:48:48;8.70;;;6.22;;
51612;SDS011;37694;51.748;14.326;2022-11-22T00:51:15;8.82;;;6.78;;
51612;SDS011;37694;51.748;14.326;2022-11-22T00:53:40;11.18;;;6.90;;
51612;SDS011;37694;51.748;14.326;2022-11-22T00:56:06;12.98;;;7.47;;
51612;SDS011;37694;51.748;14.326;2022-11-22T00:58:32;11.35;;;6.75;;
51612;SDS011;37694;51.748;14.326;2022-11-22T01:00:57;13.50;;;7.10;;
51612;SDS011;37694;51.748;14.326;2022-11-22T01:03:23;12.30;;;7.20;;
51612;SDS011;37694;51.748;14.326;2022-11-22T01:05:49;10.40;;;6.70;;
51612;SDS011;37694;51.748;14.326;2022-11-22T01:08:15;9.25;;;6.55;;
51612;SDS011;37694;51.748;14.326;2022-11-22T01:10:40;10.35;;;6.55;;
51612;SDS011;37694;51.748;14.326;2022-11-22T01:13:06;10.40;;;6.18;;
51612;SDS011;37694;51.748;14.326;2022-11-22T01:15:32;11.30;;;6.22;;
51612;SDS011;37694;51.748;14.326;2022-11-22T01:17:57;12.38;;;6.85;;
51612;SDS011;37694;51.748;14.326;2022-11-22T01:20:23;9.77;;;6.47;;
51612;SDS011;37694;51.748;14.326;2022-11-22T01:22:49;14.32;;;7.15;;
51612;SDS011;37694;51.748;14.326;2022-11-22T01:25:15;8.15;;;6.05;;
51612;SDS011;37694;51.748;14.326;2022-11-22T01:27:40;16.30;;;6.93;;
51612;SDS011;37694;51.748;14.326;2022-11-22T01:30:06;11.93;;;6.75;;
51612;SDS011;37694;51.748;14.326;2022-11-22T01:32:32;10.65;;;7.05;;
51612;SDS011;37694;51.748;14.326;2022-11-22T01:34:57;12.82;;;7.15;;
51612;SDS011;37694;51.748;14.326;2022-11-22T01:37:23;11.75;;;6.63;;
51612;SDS011;37694;51.748;14.326;2022-11-22T01:39:49;12.75;;;6.93;;
51612;SDS011;37694;51.748;14.326;2022-11-22T01:42:14;11.05;;;6.82;;
51612;SDS011;37694;51.748;14.326;2022-11-22T01:44:41;8.95;;;6.70;;
51612;SDS011;37694;51.748;14.326;2022-11-22T01:47:11;11.00;;;6.70;;
51612;SDS011;37694;51.748;14.326;2022-11-22T01:49:55;8.10;;;6.18;;
51612;SDS011;37694;51.748;14.326;2022-11-22T01:52:26;9.43;;;6.32;;
51612;SDS011;37694;51.748;14.326;2022-11-22T01:54:57;10.40;;;6.32;;
51612;SDS011;37694;51.748;14.326;2022-11-22T01:57:31;11.07;;;6.80;;
51612;SDS011;37694;51.748;14.326;2022-11-22T02:00:03;9.70;;;6.32;;
51612;SDS011;37694;51.748;14.326;2022-11-22T02:02:32;10.40;;;6.55;;
51612;SDS011;37694;51.748;14.326;2022-11-22T02:05:00;14.35;;;6.43;;
51612;SDS011;37694;51.748;14.326;2022-11-22T02:10:10;13.05;;;6.93;;
51612;SDS011;37694;51.748;14.326;2022-11-22T02:12:36;8.93;;;6.40;;
51612;SDS011;37694;51.748;14.326;2022-11-22T02:15:02;11.35;;;6.65;;
51612;SDS011;37694;51.748;14.326;2022-11-22T02:17:28;8.25;;;6.00;;
51612;SDS011;37694;51.748;14.326;2022-11-22T02:19:54;10.32;;;6.85;;
51612;SDS011;37694;51.748;14.326;2022-11-22T02:22:23;8.77;;;6.38;;
51612;SDS011;37694;51.748;14.326;2022-11-22T02:27:31;9.80;;;6.28;;
51612;SDS011;37694;51.748;14.326;2022-11-22T02:29:57;10.93;;;6.65;;
51612;SDS011;37694;51.748;14.326;2022-11-22T02:32:23;9.63;;;5.93;;
51612;SDS011;37694;51.748;14.326;2022-11-22T02:34:49;7.65;;;5.82;;
51612;SDS011;37694;51.748;14.326;2022-11-22T02:37:20;9.48;;;6.75;;
51612;SDS011;37694;51.748;14.326;2022-11-22T02:39:52;9.65;;;6.57;;
51612;SDS011;37694;51.748;14.326;2022-11-22T02:42:22;8.68;;;5.32;;
51612;SDS011;37694;51.748;14.326;2022-11-22T02:44:49;11.80;;;6.53;;
51612;SDS011;37694;51.748;14.326;2022-11-22T02:47:14;9.38;;;6.05;;
51612;SDS011;37694;51.748;14.326;2022-11-22T02:49:40;9.32;;;6.57;;
51612;SDS011;37694;51.748;14.326;2022-11-22T02:52:06;8.15;;;5.78;;
51612;SDS011;37694;51.748;14.326;2022-11-22T02:54:32;7.68;;;5.68;;
51612;SDS011;37694;51.748;14.326;2022-11-22T02:56:58;9.80;;;6.97;;
51612;SDS011;37694;51.748;14.326;2022-11-22T02:59:23;8.63;;;6.55;;
51612;SDS011;37694;51.748;14.326;2022-11-22T03:01:49;8.05;;;5.95;;
51612;SDS011;37694;51.748;14.326;2022-11-22T03:04:15;10.00;;;6.45;;
51612;SDS011;37694;51.748;14.326;2022-11-22T03:06:52;8.43;;;6.18;;
51612;SDS011;37694;51.748;14.326;2022-11-22T03:09:19;9.38;;;6.38;;
51612;SDS011;37694;51.748;14.326;2022-11-22T03:11:45;8.20;;;6.65;;
51612;SDS011;37694;51.748;14.326;2022-11-22T03:14:12;9.07;;;6.20;;
51612;SDS011;37694;51.748;14.326;2022-11-22T03:16:44;7.95;;;6.53;;
51612;SDS011;37694;51.748;14.326;2022-11-22T03:19:11;11.23;;;6.38;;
51612;SDS011;37694;51.748;14.326;2022-11-22T03:21:38;7.07;;;5.85;;
51612;SDS011;37694;51.748;14.326;2022-11-22T03:24:04;7.97;;;5.88;;
51612;SDS011;37694;51.748;14.326;2022-11-22T03:26:30;8.25;;;6.25;;
51612;SDS011;37694;51.748;14.326;2022-11-22T03:28:56;7.28;;;6.03;;
51612;SDS011;37694;51.748;14.326;2022-11-22T03:31:22;9.98;;;6.43;;
51612;SDS011;37694;51.748;14.326;2022-11-22T03:33:47;7.30;;;6.10;;
51612;SDS011;37694;51.748;14.326;2022-11-22T03:36:13;8.57;;;6.30;;
51612;SDS011;37694;51.748;14.326;2022-11-22T03:38:38;7.50;;;6.45;;
51612;SDS011;37694;51.748;14.326;2022-11-22T03:41:04;7.80;;;6.00;;
51612;SDS011;37694;51.748;14.326;2022-11-22T03:43:30;7.30;;;5.90;;
51612;SDS011;37694;51.748;14.326;2022-11-22T03:45:55;9.75;;;6.38;;
51612;SDS011;37694;51.748;14.326;2022-11-22T03:48:21;7.90;;;6.25;;
51612;SDS011;37694;51.748;14.326;2022-11-22T03:50:47;6.60;;;5.90;;
51612;SDS011;37694;51.748;14.326;2022-11-22T03:53:13;7.55;;;5.88;;
51612;SDS011;37694;51.748;14.326;2022-11-22T03:55:38;8.85;;;6.43;;
51612;SDS011;37694;51.748;14.326;2022-11-22T03:58:04;7.03;;;5.70;;
51612;SDS011;37694;51.748;14.326;2022-11-22T04:00:31;6.43;;;5.47;;
51612;SDS011;37694;51.748;14.326;2022-11-22T04:02:57;8.05;;;6.53;;
51612;SDS011;37694;51.748;14.326;2022-11-22T04:05:23;8.38;;;6.03;;
51612;SDS011;37694;51.748;14.326;2022-11-22T04:07:49;7.57;;;5.95;;
51612;SDS011;37694;51.748;14.326;2022-11-22T04:10:20;7.85;;;6.05;;
51612;SDS011;37694;51.748;14.326;2022-11-22T04:12:47;7.32;;;4.90;;
51612;SDS011;37694;51.748;14.326;2022-11-22T04:15:12;7.25;;;5.38;;
51612;SDS011;37694;51.748;14.326;2022-11-22T04:17:39;13.15;;;6.40;;
51612;SDS011;37694;51.748;14.326;2022-11-22T04:22:54;9.20;;;6.55;;
51612;SDS011;37694;51.748;14.326;2022-11-22T04:25:25;9.13;;;5.90;;
51612;SDS011;37694;51.748;14.326;2022-11-22T04:27:52;12.68;;;5.30;;
51612;SDS011;37694;51.748;14.326;2022-11-22T04:30:18;8.15;;;5.32;;
51612;SDS011;37694;51.748;14.326;2022-11-22T04:32:43;9.80;;;6.35;;
51612;SDS011;37694;51.748;14.326;2022-11-22T04:35:09;9.52;;;5.95;;
51612;SDS011;37694;51.748;14.326;2022-11-22T04:37:36;13.13;;;5.28;;
51612;SDS011;37694;51.748;14.326;2022-11-22T04:40:02;8.02;;;5.95;;
51612;SDS011;37694;51.748;14.326;2022-11-22T04:42:28;6.70;;;5.38;;
51612;SDS011;37694;51.748;14.326;2022-11-22T04:45:12;7.43;;;5.60;;
51612;SDS011;37694;51.748;14.326;2022-11-22T04:47:38;8.52;;;6.13;;
51612;SDS011;37694;51.748;14.326;2022-11-22T04:50:22;7.90;;;5.88;;
51612;SDS011;37694;51.748;14.326;2022-11-22T04:53:07;6.22;;;5.20;;
51612;SDS011;37694;51.748;14.326;2022-11-22T04:55:32;13.07;;;5.80;;
51612;SDS011;37694;51.748;14.326;2022-11-22T04:57:58;12.75;;;6.47;;
51612;SDS011;37694;51.748;14.326;2022-11-22T05:00:24;17.30;;;5.57;;
51612;SDS011;37694;51.748;14.326;2022-11-22T05:02:51;11.57;;;5.68;;
51612;SDS011;37694;51.748;14.326;2022-11-22T05:05:17;22.10;;;6.45;;
51612;SDS011;37694;51.748;14.326;2022-11-22T05:07:42;14.75;;;5.80;;
51612;SDS011;37694;51.748;14.326;2022-11-22T05:10:08;9.15;;;5.35;;
51612;SDS011;37694;51.748;14.326;2022-11-22T05:12:34;11.25;;;5.88;;
51612;SDS011;37694;51.748;14.326;2022-11-22T05:15:00;7.78;;;5.88;;
51612;SDS011;37694;51.748;14.326;2022-11-22T05:17:25;11.70;;;6.10;;
51612;SDS011;37694;51.748;14.326;2022-11-22T05:19:51;12.27;;;5.78;;
51612;SDS011;37694;51.748;14.326;2022-11-22T05:22:17;17.25;;;7.25;;
51612;SDS011;37694;51.748;14.326;2022-11-22T05:25:02;11.13;;;5.63;;
51612;SDS011;37694;51.748;14.326;2022-11-22T05:27:28;10.88;;;5.95;;
51612;SDS011;37694;51.748;14.326;2022-11-22T05:29:54;6.07;;;5.10;;
51612;SDS011;37694;51.748;14.326;2022-11-22T05:32:19;9.77;;;6.65;;
51612;SDS011;37694;51.748;14.326;2022-11-22T05:34:45;8.73;;;5.80;;
51612;SDS011;37694;51.748;14.326;2022-11-22T05:37:10;7.03;;;5.82;;
51612;SDS011;37694;51.748;14.326;2022-11-22T05:39:36;6.55;;;5.35;;
51612;SDS011;37694;51.748;14.326;2022-11-22T05:42:02;10.63;;;6.30;;
51612;SDS011;37694;51.748;14.326;2022-11-22T05:44:29;9.15;;;5.85;;
51612;SDS011;37694;51.748;14.326;2022-11-22T05:46:55;6.57;;;5.30;;
51612;SDS011;37694;51.748;14.326;2022-11-22T05:49:21;9.27;;;5.70;;
51612;SDS011;37694;51.748;14.326;2022-11-22T05:51:47;10.35;;;6.18;;
51612;SDS011;37694;51.748;14.326;2022-11-22T05:54:12;8.13;;;5.78;;
51612;SDS011;37694;51.748;14.326;2022-11-22T05:56:38;8.32;;;5.63;;
51612;SDS011;37694;51.748;14.326;2022-11-22T05:59:04;8.25;;;5.72;;
51612;SDS011;37694;51.748;14.326;2022-11-22T06:01:30;6.88;;;5.93;;
51612;SDS011;37694;51.748;14.326;2022-11-22T06:03:55;8.50;;;5.80;;
51612;SDS011;37694;51.748;14.326;2022-11-22T06:06:21;7.35;;;5.75;;
51612;SDS011;37694;51.748;14.326;2022-11-22T06:08:47;11.05;;;5.93;;
51612;SDS011;37694;51.748;14.326;2022-11-22T06:11:13;10.75;;;6.00;;
51612;SDS011;37694;51.748;14.326;2022-11-22T06:13:45;11.88;;;6.35;;
51612;SDS011;37694;51.748;14.326;2022-11-22T06:16:12;8.75;;;6.18;;
51612;SDS011;37694;51.748;14.326;2022-11-22T06:18:38;10.90;;;6.05;;
51612;SDS011;37694;51.748;14.326;2022-11-22T06:21:04;29.42;;;7.55;;
51612;SDS011;37694;51.748;14.326;2022-11-22T06:23:32;24.35;;;7.63;;
51612;SDS011;37694;51.748;14.326;2022-11-22T06:25:59;19.92;;;6.85;;
51612;SDS011;37694;51.748;14.326;2022-11-22T06:28:29;12.05;;;6.30;;
51612;SDS011;37694;51.748;14.326;2022-11-22T06:31:07;32.53;;;7.45;;
51612;SDS011;37694;51.748;14.326;2022-11-22T06:33:40;18.57;;;7.03;;
51612;SDS011;37694;51.748;14.326;2022-11-22T06:36:10;28.33;;;8.98;;
51612;SDS011;37694;51.748;14.326;2022-11-22T06:38:38;30.25;;;8.10;;
51612;SDS011;37694;51.748;14.326;2022-11-22T06:41:05;37.70;;;9.15;;
51612;SDS011;37694;51.748;14.326;2022-11-22T06:43:33;94.32;;;14.63;;
51612;SDS011;37694;51.748;14.326;2022-11-22T06:46:00;113.97;;;14.32;;
51612;SDS011;37694;51.748;14.326;2022-11-22T06:48:31;64.93;;;12.63;;
51612;SDS011;37694;51.748;14.326;2022-11-22T06:50:58;72.45;;;12.45;;
51612;SDS011;37694;51.748;14.326;2022-11-22T06:53:28;50.55;;;12.98;;
51612;SDS011;37694;51.748;14.326;2022-11-22T06:56:05;61.50;;;13.18;;
51612;SDS011;37694;51.748;14.326;2022-11-22T06:58:32;55.17;;;13.00;;
51612;SDS011;37694;51.748;14.326;2022-11-22T07:01:17;60.60;;;13.85;;
51612;SDS011;37694;51.748;14.326;2022-11-22T07:03:47;69.95;;;13.57;;
51612;SDS011;37694;51.748;14.326;2022-11-22T07:06:14;54.15;;;13.43;;
51612;SDS011;37694;51.748;14.326;2022-11-22T07:08:42;74.53;;;15.30;;
51612;SDS011;37694;51.748;14.326;2022-11-22T07:11:09;64.13;;;16.63;;
51612;SDS011;37694;51.748;14.326;2022-11-22T07:13:36;80.78;;;16.63;;
51612;SDS011;37694;51.748;14.326;2022-11-22T07:16:03;67.72;;;18.42;;
51612;SDS011;37694;51.748;14.326;2022-11-22T07:18:31;77.35;;;16.58;;
51612;SDS011;37694;51.748;14.326;2022-11-22T07:21:07;75.40;;;16.70;;
51612;SDS011;37694;51.748;14.326;2022-11-22T07:23:34;70.40;;;17.75;;
51612;SDS011;37694;51.748;14.326;2022-11-22T07:26:00;60.67;;;16.65;;
51612;SDS011;37694;51.748;14.326;2022-11-22T07:28:26;55.92;;;15.55;;
51612;SDS011;37694;51.748;14.326;2022-11-22T07:30:52;65.38;;;17.08;;
51612;SDS011;37694;51.748;14.326;2022-11-22T07:33:17;75.70;;;16.38;;
51612;SDS011;37694;51.748;14.326;2022-11-22T07:35:43;62.22;;;16.73;;
51612;SDS011;37694;51.748;14.326;2022-11-22T07:38:09;55.42;;;16.65;;
51612;SDS011;37694;51.748;14.326;2022-11-22T07:40:34;54.47;;;15.32;;
51612;SDS011;37694;51.748;14.326;2022-11-22T07:43:00;58.50;;;15.43;;
51612;SDS011;37694;51.748;14.326;2022-11-22T07:45:26;60.40;;;14.48;;
51612;SDS011;37694;51.748;14.326;2022-11-22T07:47:52;45.13;;;14.25;;
51612;SDS011;37694;51.748;14.326;2022-11-22T07:50:17;36.67;;;12.40;;
51612;SDS011;37694;51.748;14.326;2022-11-22T07:52:43;56.22;;;14.55;;
51612;SDS011;37694;51.748;14.326;2022-11-22T07:55:09;48.75;;;14.57;;
51612;SDS011;37694;51.748;14.326;2022-11-22T07:57:35;52.92;;;14.82;;
51612;SDS011;37694;51.748;14.326;2022-11-22T08:00:01;48.28;;;13.88;;
51612;SDS011;37694;51.748;14.326;2022-11-22T08:02:28;43.67;;;14.40;;
51612;SDS011;37694;51.748;14.326;2022-11-22T08:04:54;37.00;;;14.60;;
51612;SDS011;37694;51.748;14.326;2022-11-22T08:07:19;44.53;;;13.85;;
51612;SDS011;37694;51.748;14.326;2022-11-22T08:09:45;40.63;;;14.93;;
51612;SDS011;37694;51.748;14.326;2022-11-22T08:12:11;41.50;;;13.82;;
51612;SDS011;37694;51.748;14.326;2022-11-22T08:14:37;34.10;;;11.93;;
51612;SDS011;37694;51.748;14.326;2022-11-22T08:17:02;51.10;;;14.07;;
51612;SDS011;37694;51.748;14.326;2022-11-22T08:19:29;34.67;;;12.63;;
51612;SDS011;37694;51.748;14.326;2022-11-22T08:21:55;36.65;;;13.27;;
51612;SDS011;37694;51.748;14.326;2022-11-22T08:24:20;31.77;;;12.05;;
51612;SDS011;37694;51.748;14.326;2022-11-22T08:26:46;42.33;;;13.90;;
51612;SDS011;37694;51.748;14.326;2022-11-22T08:29:12;33.58;;;13.63;;
51612;SDS011;37694;51.748;14.326;2022-11-22T08:31:38;32.30;;;12.82;;
51612;SDS011;37694;51.748;14.326;2022-11-22T08:34:04;31.27;;;12.50;;
51612;SDS011;37694;51.748;14.326;2022-11-22T08:36:30;26.05;;;11.85;;
51612;SDS011;37694;51.748;14.326;2022-11-22T08:38:56;32.08;;;13.27;;
51612;SDS011;37694;51.748;14.326;2022-11-22T08:41:22;32.65;;;12.15;;
51612;SDS011;37694;51.748;14.326;2022-11-22T08:43:49;31.45;;;12.52;;
51612;SDS011;37694;51.748;14.326;2022-11-22T08:46:15;30.90;;;13.23;;
51612;SDS011;37694;51.748;14.326;2022-11-22T08:48:41;29.15;;;12.40;;
51612;SDS011;37694;51.748;14.326;2022-11-22T08:51:07;21.90;;;11.27;;
51612;SDS011;37694;51.748;14.326;2022-11-22T08:53:36;32.83;;;13.18;;
51612;SDS011;37694;51.748;14.326;2022-11-22T08:56:03;27.63;;;12.82;;
51612;SDS011;37694;51.748;14.326;2022-11-22T08:58:31;33.83;;;12.75;;
51612;SDS011;37694;51.748;14.326;2022-11-22T09:01:07;29.17;;;12.50;;
51612;SDS011;37694;51.748;14.326;2022-11-22T09:03:37;22.23;;;11.15;;
51612;SDS011;37694;51.748;14.326;2022-11-22T09:06:08;28.15;;;11.73;;
51612;SDS011;37694;51.748;14.326;2022-11-22T09:08:35;26.13;;;13.25;;
51612;SDS011;37694;51.748;14.326;2022-11-22T09:11:02;28.08;;;11.65;;
51612;SDS011;37694;51.748;14.326;2022-11-22T09:13:29;31.45;;;12.75;;
51612;SDS011;37694;51.748;14.326;2022-11-22T09:15:59;24.15;;;11.45;;
51612;SDS011;37694;51.748;14.326;2022-11-22T09:18:32;25.77;;;11.13;;
51612;SDS011;37694;51.748;14.326;2022-11-22T09:20:58;24.67;;;10.65;;
51612;SDS011;37694;51.748;14.326;2022-11-22T09:23:25;28.30;;;12.38;;
51612;SDS011;37694;51.748;14.326;2022-11-22T09:26:04;24.05;;;11.13;;
51612;SDS011;37694;51.748;14.326;2022-11-22T09:31:01;18.52;;;10.27;;
51612;SDS011;37694;51.748;14.326;2022-11-22T09:33:32;18.92;;;10.60;;
51612;SDS011;37694;51.748;14.326;2022-11-22T09:36:02;23.27;;;11.18;;
51612;SDS011;37694;51.748;14.326;2022-11-22T09:38:30;25.40;;;11.30;;
51612;SDS011;37694;51.748;14.326;2022-11-22T09:40:57;24.70;;;11.15;;
51612;SDS011;37694;51.748;14.326;2022-11-22T09:46:44;25.98;;;11.15;;
51612;SDS011;37694;51.748;14.326;2022-11-22T09:52:06;20.70;;;10.50;;
51612;SDS011;37694;51.748;14.326;2022-11-22T09:54:46;22.95;;;11.95;;
51612;SDS011;37694;51.748;14.326;2022-11-22T09:57:17;18.98;;;10.60;;
51612;SDS011;37694;51.748;14.326;2022-11-22T10:00:06;19.20;;;10.18;;
51612;SDS011;37694;51.748;14.326;2022-11-22T10:02:44;27.00;;;10.50;;
51612;SDS011;37694;51.748;14.326;2022-11-22T10:05:24;17.80;;;10.50;;
51612;SDS011;37694;51.748;14.326;2022-11-22T10:10:45;17.83;;;10.52;;
51612;SDS011;37694;51.748;14.326;2022-11-22T10:13:52;20.85;;;10.23;;
51612;SDS011;37694;51.748;14.326;2022-11-22T10:16:22;19.77;;;10.43;;
51612;SDS011;37694;51.748;14.326;2022-11-22T10:18:56;17.95;;;10.15;;
51612;SDS011;37694;51.748;14.326;2022-11-22T10:21:26;16.30;;;9.80;;
51612;SDS011;37694;51.748;14.326;2022-11-22T10:23:52;19.92;;;10.63;;
51612;SDS011;37694;51.748;14.326;2022-11-22T10:42:46;17.63;;;9.57;;
51612;SDS011;37694;51.748;14.326;2022-11-22T10:45:34;16.92;;;9.65;;
51612;SDS011;37694;51.748;14.326;2022-11-22T10:51:05;12.48;;;8.55;;
51612;SDS011;37694;51.748;14.326;2022-11-22T10:53:44;14.90;;;8.60;;
51612;SDS011;37694;51.748;14.326;2022-11-22T10:59:04;16.73;;;9.13;;
51612;SDS011;37694;51.748;14.326;2022-11-22T11:04:35;12.18;;;8.30;;
51612;SDS011;37694;51.748;14.326;2022-11-22T11:07:04;14.50;;;9.15;;
51612;SDS011;37694;51.748;14.326;2022-11-22T11:12:52;12.07;;;8.70;;
51612;SDS011;37694;51.748;14.326;2022-11-22T11:15:55;13.77;;;8.05;;
51612;SDS011;37694;51.748;14.326;2022-11-22T11:18:18;12.90;;;7.55;;
51612;SDS011;37694;51.748;14.326;2022-11-22T11:20:49;13.70;;;8.93;;
51612;SDS011;37694;51.748;14.326;2022-11-22T11:23:16;14.13;;;8.88;;
51612;SDS011;37694;51.748;14.326;2022-11-22T11:25:43;15.43;;;8.05;;
51612;SDS011;37694;51.748;14.326;2022-11-22T11:28:22;14.25;;;7.70;;
51612;SDS011;37694;51.748;14.326;2022-11-22T11:30:54;13.80;;;8.85;;
51612;SDS011;37694;51.748;14.326;2022-11-22T11:33:37;12.45;;;8.27;;
51612;SDS011;37694;51.748;14.326;2022-11-22T11:36:09;13.93;;;8.25;;
51612;SDS011;37694;51.748;14.326;2022-11-22T11:43:42;12.57;;;8.05;;
51612;SDS011;37694;51.748;14.326;2022-11-22T11:46:19;12.32;;;8.73;;
51612;SDS011;37694;51.748;14.326;2022-11-22T11:48:47;13.10;;;8.50;;
51612;SDS011;37694;51.748;14.326;2022-11-22T11:51:20;11.75;;;8.32;;
51612;SDS011;37694;51.748;14.326;2022-11-22T11:53:53;11.27;;;7.50;;
51612;SDS011;37694;51.748;14.326;2022-11-22T11:56:31;10.75;;;7.30;;
51612;SDS011;37694;51.748;14.326;2022-11-22T11:59:01;14.80;;;8.25;;
51612;SDS011;37694;51.748;14.326;2022-11-22T12:01:31;11.07;;;7.45;;
51612;SDS011;37694;51.748;14.326;2022-11-22T12:04:00;11.35;;;8.25;;
51612;SDS011;37694;51.748;14.326;2022-11-22T12:06:29;11.50;;;8.10;;
51612;SDS011;37694;51.748;14.326;2022-11-22T12:08:56;10.48;;;7.10;;
51612;SDS011;37694;51.748;14.326;2022-11-22T12:11:25;10.45;;;7.70;;
51612;SDS011;37694;51.748;14.326;2022-11-22T12:14:10;13.05;;;7.93;;
51612;SDS011;37694;51.748;14.326;2022-11-22T12:16:39;13.43;;;7.93;;
51612;SDS011;37694;51.748;14.326;2022-11-22T12:27:21;11.10;;;7.18;;
51612;SDS011;37694;51.748;14.326;2022-11-22T12:29:47;9.30;;;7.05;;
51612;SDS011;37694;51.748;14.326;2022-11-22T12:32:21;11.15;;;7.95;;
51612;SDS011;37694;51.748;14.326;2022-11-22T12:35:02;10.50;;;7.07;;
51612;SDS011;37694;51.748;14.326;2022-11-22T12:43:10;15.95;;;7.53;;
51612;SDS011;37694;51.748;14.326;2022-11-22T12:45:42;10.10;;;7.53;;
51612;SDS011;37694;51.748;14.326;2022-11-22T12:48:14;10.60;;;7.38;;
51612;SDS011;37694;51.748;14.326;2022-11-22T12:50:45;9.77;;;6.60;;
51612;SDS011;37694;51.748;14.326;2022-11-22T12:53:16;9.35;;;6.85;;
51612;SDS011;37694;51.748;14.326;2022-11-22T12:55:57;11.13;;;7.32;;
51612;SDS011;37694;51.748;14.326;2022-11-22T12:58:38;8.95;;;6.80;;
51612;SDS011;37694;51.748;14.326;2022-11-22T13:01:12;11.25;;;7.28;;
51612;SDS011;37694;51.748;14.326;2022-11-22T13:09:34;9.75;;;7.35;;
51612;SDS011;37694;51.748;14.326;2022-11-22T13:12:12;9.65;;;7.03;;
51612;SDS011;37694;51.748;14.326;2022-11-22T13:14:45;12.10;;;7.45;;
51612;SDS011;37694;51.748;14.326;2022-11-22T13:17:18;10.05;;;7.38;;
51612;SDS011;37694;51.748;14.326;2022-11-22T13:20:07;11.63;;;7.45;;
51612;SDS011;37694;51.748;14.326;2022-11-22T13:22:50;9.18;;;7.03;;
51612;SDS011;37694;51.748;14.326;2022-11-22T13:25:35;10.50;;;7.10;;
51612;SDS011;37694;51.748;14.326;2022-11-22T13:28:31;7.57;;;6.43;;
51612;SDS011;37694;51.748;14.326;2022-11-22T13:31:03;9.77;;;6.75;;
51612;SDS011;37694;51.748;14.326;2022-11-22T13:33:29;8.45;;;6.72;;
51612;SDS011;37694;51.748;14.326;2022-11-22T13:39:01;8.75;;;6.57;;
51612;SDS011;37694;51.748;14.326;2022-11-22T13:41:40;9.40;;;6.65;;
51612;SDS011;37694;51.748;14.326;2022-11-22T13:49:48;10.05;;;6.50;;
51612;SDS011;37694;51.748;14.326;2022-11-22T13:57:32;9.80;;;6.80;;
51612;SDS011;37694;51.748;14.326;2022-11-22T14:02:42;9.98;;;6.65;;
51612;SDS011;37694;51.748;14.326;2022-11-22T14:07:49;7.82;;;6.20;;
51612;SDS011;37694;51.748;14.326;2022-11-22T14:13:06;9.63;;;6.80;;
51612;SDS011;37694;51.748;14.326;2022-11-22T14:16:11;8.50;;;6.18;;
51612;SDS011;37694;51.748;14.326;2022-11-22T14:26:53;8.40;;;6.60;;
51612;SDS011;37694;51.748;14.326;2022-11-22T14:47:35;8.70;;;6.53;;
51612;SDS011;37694;51.748;14.326;2022-11-22T14:50:03;9.25;;;5.93;;
51612;SDS011;37694;51.748;14.326;2022-11-22T14:52:34;9.68;;;6.53;;
51612;SDS011;37694;51.748;14.326;2022-11-22T14:55:02;10.32;;;6.53;;
51612;SDS011;37694;51.748;14.326;2022-11-22T14:57:31;8.00;;;6.03;;
51612;SDS011;37694;51.748;14.326;2022-11-22T15:16:42;8.52;;;6.00;;
51612;SDS011;37694;51.748;14.326;2022-11-22T15:22:09;8.68;;;5.68;;
51612;SDS011;37694;51.748;14.326;2022-11-22T15:24:37;10.95;;;5.60;;
51612;SDS011;37694;51.748;14.326;2022-11-22T15:30:13;9.18;;;6.05;;
51612;SDS011;37694;51.748;14.326;2022-11-22T15:32:46;17.63;;;6.18;;
51612;SDS011;37694;51.748;14.326;2022-11-22T15:35:16;18.05;;;6.07;;
51612;SDS011;37694;51.748;14.326;2022-11-22T15:37:55;11.27;;;6.32;;
51612;SDS011;37694;51.748;14.326;2022-11-22T15:40:26;11.15;;;5.93;;
51612;SDS011;37694;51.748;14.326;2022-11-22T15:43:03;11.20;;;5.72;;
51612;SDS011;37694;51.748;14.326;2022-11-22T15:45:30;15.07;;;6.35;;
51612;SDS011;37694;51.748;14.326;2022-11-22T15:48:03;19.90;;;6.50;;
51612;SDS011;37694;51.748;14.326;2022-11-22T15:50:30;12.90;;;6.30;;
51612;SDS011;37694;51.748;14.326;2022-11-22T15:53:06;15.70;;;6.18;;
51612;SDS011;37694;51.748;14.326;2022-11-22T15:58:44;14.57;;;6.05;;
51612;SDS011;37694;51.748;14.326;2022-11-22T16:01:13;17.33;;;5.82;;
51612;SDS011;37694;51.748;14.326;2022-11-22T16:03:40;23.58;;;6.80;;
51612;SDS011;37694;51.748;14.326;2022-11-22T16:06:12;15.15;;;6.28;;
51612;SDS011;37694;51.748;14.326;2022-11-22T16:08:47;17.02;;;5.82;;
51612;SDS011;37694;51.748;14.326;2022-11-22T16:11:27;7.97;;;4.93;;
51612;SDS011;37694;51.748;14.326;2022-11-22T16:13:56;13.20;;;6.10;;
51612;SDS011;37694;51.748;14.326;2022-11-22T16:21:56;9.07;;;4.97;;
51612;SDS011;37694;51.748;14.326;2022-11-22T16:24:29;10.80;;;5.43;;
51612;SDS011;37694;51.748;14.326;2022-11-22T16:26:59;15.77;;;5.25;;
51612;SDS011;37694;51.748;14.326;2022-11-22T16:29:33;17.02;;;6.78;;
51612;SDS011;37694;51.748;14.326;2022-11-22T16:34:37;13.00;;;6.13;;
51612;SDS011;37694;51.748;14.326;2022-11-22T16:37:22;13.00;;;4.85;;
51612;SDS011;37694;51.748;14.326;2022-11-22T16:39:55;14.25;;;6.15;;
51612;SDS011;37694;51.748;14.326;2022-11-22T16:42:22;10.88;;;5.05;;
51612;SDS011;37694;51.748;14.326;2022-11-22T16:44:49;10.52;;;5.82;;
51612;SDS011;37694;51.748;14.326;2022-11-22T16:47:15;14.27;;;5.75;;
51612;SDS011;37694;51.748;14.326;2022-11-22T16:49:43;15.48;;;5.70;;
51612;SDS011;37694;51.748;14.326;2022-11-22T16:52:10;11.57;;;5.72;;
51612;SDS011;37694;51.748;14.326;2022-11-22T16:54:37;11.10;;;5.30;;
51612;SDS011;37694;51.748;14.326;2022-11-22T16:57:10;21.10;;;5.88;;
51612;SDS011;37694;51.748;14.326;2022-11-22T16:59:36;13.97;;;5.63;;
51612;SDS011;37694;51.748;14.326;2022-11-22T17:02:02;13.82;;;6.22;;
51612;SDS011;37694;51.748;14.326;2022-11-22T17:04:30;18.58;;;4.93;;
51612;SDS011;37694;51.748;14.326;2022-11-22T17:06:57;11.30;;;5.93;;
51612;SDS011;37694;51.748;14.326;2022-11-22T17:09:23;11.77;;;5.00;;